sensor_id;sensor_type;location;lat;lon;timestamp;P1;durP1;ratioP1;P2;durP2;ratioP2
15012;SDS011;7603;49.432;11.418;2023-03-16T00:02:16;2.13;;;2.00;;
15012;SDS011;7603;49.432;11.418;2023-03-16T00:04:42;1.80;;;1.70;;
15012;SDS011;7603;49.432;11.418;2023-03-16T00:07:11;4.23;;;1.87;;
15012;SDS011;7603;49.432;11.418;2023-03-16T00:09:39;2.23;;;2.03;;
15012;SDS011;7603;49.432;11.418;2023-03-16T00:12:06;2.10;;;2.00;;
15012;SDS011;7603;49.432;11.418;2023-03-16T00:14:42;2.37;;;2.20;;
15012;SDS011;7603;49.432;11.418;2023-03-16T00:17:12;2.97;;;2.07;;
15012;SDS011;7603;49.432;11.418;2023-03-16T00:19:49;1.80;;;1.67;;
15012;SDS011;7603;49.432;11.418;2023-03-16T00:22:23;2.47;;;2.37;;
15012;SDS011;7603;49.432;11.418;2023-03-16T00:24:51;2.47;;;1.97;;
15012;SDS011;7603;49.432;11.418;2023-03-16T00:27:17;1.97;;;1.87;;
15012;SDS011;7603;49.432;11.418;2023-03-16T00:29:44;1.53;;;1.43;;
15012;SDS011;7603;49.432;11.418;2023-03-16T00:32:18;1.57;;;1.57;;
15012;SDS011;7603;49.432;11.418;2023-03-16T00:34:45;2.40;;;2.20;;
15012;SDS011;7603;49.432;11.418;2023-03-16T00:37:12;1.80;;;1.70;;
15012;SDS011;7603;49.432;11.418;2023-03-16T00:39:40;2.20;;;2.00;;
15012;SDS011;7603;49.432;11.418;2023-03-16T00:42:07;1.40;;;1.40;;
15012;SDS011;7603;49.432;11.418;2023-03-16T00:44:34;2.83;;;2.37;;
15012;SDS011;7603;49.432;11.418;2023-03-16T00:47:03;1.90;;;1.80;;
15012;SDS011;7603;49.432;11.418;2023-03-16T00:49:30;2.03;;;1.73;;
15012;SDS011;7603;49.432;11.418;2023-03-16T00:51:59;1.50;;;1.40;;
15012;SDS011;7603;49.432;11.418;2023-03-16T00:54:25;2.33;;;2.23;;
15012;SDS011;7603;49.432;11.418;2023-03-16T00:56:51;2.13;;;2.03;;
15012;SDS011;7603;49.432;11.418;2023-03-16T00:59:17;1.80;;;1.70;;
15012;SDS011;7603;49.432;11.418;2023-03-16T01:01:45;1.43;;;1.37;;
15012;SDS011;7603;49.432;11.418;2023-03-16T01:04:11;1.87;;;1.83;;
15012;SDS011;7603;49.432;11.418;2023-03-16T01:06:37;2.10;;;2.00;;
15012;SDS011;7603;49.432;11.418;2023-03-16T01:09:03;1.80;;;1.77;;
15012;SDS011;7603;49.432;11.418;2023-03-16T01:11:29;2.63;;;2.43;;
15012;SDS011;7603;49.432;11.418;2023-03-16T01:13:57;1.40;;;1.40;;
15012;SDS011;7603;49.432;11.418;2023-03-16T01:16:24;2.30;;;2.20;;
15012;SDS011;7603;49.432;11.418;2023-03-16T01:18:50;2.27;;;1.93;;
15012;SDS011;7603;49.432;11.418;2023-03-16T01:21:16;1.60;;;1.50;;
15012;SDS011;7603;49.432;11.418;2023-03-16T01:23:42;2.53;;;1.50;;
15012;SDS011;7603;49.432;11.418;2023-03-16T01:26:08;2.13;;;2.03;;
15012;SDS011;7603;49.432;11.418;2023-03-16T01:28:35;3.17;;;2.37;;
15012;SDS011;7603;49.432;11.418;2023-03-16T01:31:02;1.80;;;1.80;;
15012;SDS011;7603;49.432;11.418;2023-03-16T01:33:33;2.07;;;1.87;;
15012;SDS011;7603;49.432;11.418;2023-03-16T01:36:04;2.47;;;2.27;;
15012;SDS011;7603;49.432;11.418;2023-03-16T01:38:31;1.43;;;1.43;;
15012;SDS011;7603;49.432;11.418;2023-03-16T01:40:57;1.53;;;1.43;;
15012;SDS011;7603;49.432;11.418;2023-03-16T01:43:25;1.27;;;1.27;;
15012;SDS011;7603;49.432;11.418;2023-03-16T01:48:32;2.43;;;2.23;;
15012;SDS011;7603;49.432;11.418;2023-03-16T01:53:53;1.57;;;1.43;;
15012;SDS011;7603;49.432;11.418;2023-03-16T01:56:24;4.37;;;1.87;;
15012;SDS011;7603;49.432;11.418;2023-03-16T01:58:53;2.43;;;2.30;;
15012;SDS011;7603;49.432;11.418;2023-03-16T02:01:22;2.80;;;2.57;;
15012;SDS011;7603;49.432;11.418;2023-03-16T02:03:50;2.43;;;2.23;;
15012;SDS011;7603;49.432;11.418;2023-03-16T02:06:24;2.93;;;1.77;;
15012;SDS011;7603;49.432;11.418;2023-03-16T02:08:50;1.97;;;1.87;;
15012;SDS011;7603;49.432;11.418;2023-03-16T02:11:19;2.73;;;1.93;;
15012;SDS011;7603;49.432;11.418;2023-03-16T02:13:46;1.63;;;1.60;;
15012;SDS011;7603;49.432;11.418;2023-03-16T02:16:13;2.20;;;2.00;;
15012;SDS011;7603;49.432;11.418;2023-03-16T02:18:44;2.27;;;2.07;;
15012;SDS011;7603;49.432;11.418;2023-03-16T02:21:13;2.37;;;2.27;;
15012;SDS011;7603;49.432;11.418;2023-03-16T02:24:03;1.97;;;1.83;;
15012;SDS011;7603;49.432;11.418;2023-03-16T02:26:36;2.30;;;2.00;;
15012;SDS011;7603;49.432;11.418;2023-03-16T02:32:14;2.30;;;2.10;;
15012;SDS011;7603;49.432;11.418;2023-03-16T02:34:41;1.50;;;1.40;;
15012;SDS011;7603;49.432;11.418;2023-03-16T02:37:07;1.30;;;1.30;;
15012;SDS011;7603;49.432;11.418;2023-03-16T02:39:34;1.70;;;1.60;;
15012;SDS011;7603;49.432;11.418;2023-03-16T02:42:00;2.13;;;1.87;;
15012;SDS011;7603;49.432;11.418;2023-03-16T02:44:26;1.77;;;1.70;;
15012;SDS011;7603;49.432;11.418;2023-03-16T02:46:59;1.80;;;1.70;;
15012;SDS011;7603;49.432;11.418;2023-03-16T02:49:36;2.00;;;1.73;;
15012;SDS011;7603;49.432;11.418;2023-03-16T02:52:07;1.67;;;1.57;;
15012;SDS011;7603;49.432;11.418;2023-03-16T02:54:34;1.27;;;1.27;;
15012;SDS011;7603;49.432;11.418;2023-03-16T02:56:59;1.80;;;1.70;;
15012;SDS011;7603;49.432;11.418;2023-03-16T02:59:25;3.87;;;1.53;;
15012;SDS011;7603;49.432;11.418;2023-03-16T03:01:51;1.77;;;1.67;;
15012;SDS011;7603;49.432;11.418;2023-03-16T03:04:17;1.77;;;1.70;;
15012;SDS011;7603;49.432;11.418;2023-03-16T03:06:43;1.93;;;1.83;;
15012;SDS011;7603;49.432;11.418;2023-03-16T03:09:08;1.50;;;1.50;;
15012;SDS011;7603;49.432;11.418;2023-03-16T03:11:37;1.20;;;1.10;;
15012;SDS011;7603;49.432;11.418;2023-03-16T03:14:03;1.17;;;1.13;;
15012;SDS011;7603;49.432;11.418;2023-03-16T03:16:29;1.20;;;1.20;;
15012;SDS011;7603;49.432;11.418;2023-03-16T03:18:55;1.43;;;1.33;;
15012;SDS011;7603;49.432;11.418;2023-03-16T03:21:22;1.27;;;1.27;;
15012;SDS011;7603;49.432;11.418;2023-03-16T03:23:48;1.80;;;1.70;;
15012;SDS011;7603;49.432;11.418;2023-03-16T03:26:14;1.87;;;1.80;;
15012;SDS011;7603;49.432;11.418;2023-03-16T03:28:40;2.20;;;1.50;;
15012;SDS011;7603;49.432;11.418;2023-03-16T03:31:07;1.33;;;1.33;;
15012;SDS011;7603;49.432;11.418;2023-03-16T03:33:38;1.10;;;1.10;;
15012;SDS011;7603;49.432;11.418;2023-03-16T03:36:04;4.23;;;3.13;;
15012;SDS011;7603;49.432;11.418;2023-03-16T03:38:30;1.77;;;1.70;;
15012;SDS011;7603;49.432;11.418;2023-03-16T03:40:56;1.67;;;1.67;;
15012;SDS011;7603;49.432;11.418;2023-03-16T03:43:24;1.60;;;1.60;;
15012;SDS011;7603;49.432;11.418;2023-03-16T03:45:54;1.50;;;1.50;;
15012;SDS011;7603;49.432;11.418;2023-03-16T03:48:21;1.37;;;1.37;;
15012;SDS011;7603;49.432;11.418;2023-03-16T03:50:47;1.43;;;1.30;;
15012;SDS011;7603;49.432;11.418;2023-03-16T03:53:13;1.30;;;1.30;;
15012;SDS011;7603;49.432;11.418;2023-03-16T03:55:39;1.50;;;1.50;;
15012;SDS011;7603;49.432;11.418;2023-03-16T03:58:04;1.07;;;1.07;;
15012;SDS011;7603;49.432;11.418;2023-03-16T04:00:30;0.93;;;0.93;;
15012;SDS011;7603;49.432;11.418;2023-03-16T04:02:56;3.27;;;1.30;;
15012;SDS011;7603;49.432;11.418;2023-03-16T04:05:21;2.60;;;1.43;;
15012;SDS011;7603;49.432;11.418;2023-03-16T04:07:49;1.30;;;1.20;;
15012;SDS011;7603;49.432;11.418;2023-03-16T04:10:19;1.20;;;1.20;;
15012;SDS011;7603;49.432;11.418;2023-03-16T04:12:44;1.47;;;1.47;;
15012;SDS011;7603;49.432;11.418;2023-03-16T04:15:10;1.20;;;1.20;;
15012;SDS011;7603;49.432;11.418;2023-03-16T04:17:36;2.23;;;2.13;;
15012;SDS011;7603;49.432;11.418;2023-03-16T04:20:02;1.17;;;1.17;;
15012;SDS011;7603;49.432;11.418;2023-03-16T04:22:31;1.90;;;1.43;;
15012;SDS011;7603;49.432;11.418;2023-03-16T04:24:57;1.10;;;1.10;;
15012;SDS011;7603;49.432;11.418;2023-03-16T04:27:22;1.13;;;1.13;;
15012;SDS011;7603;49.432;11.418;2023-03-16T04:29:48;1.27;;;1.27;;
15012;SDS011;7603;49.432;11.418;2023-03-16T04:32:13;1.67;;;1.57;;
15012;SDS011;7603;49.432;11.418;2023-03-16T04:34:39;1.20;;;1.20;;
15012;SDS011;7603;49.432;11.418;2023-03-16T04:37:07;1.93;;;1.83;;
15012;SDS011;7603;49.432;11.418;2023-03-16T04:39:33;1.40;;;1.40;;
15012;SDS011;7603;49.432;11.418;2023-03-16T04:41:58;2.00;;;1.90;;
15012;SDS011;7603;49.432;11.418;2023-03-16T04:44:25;1.80;;;1.70;;
15012;SDS011;7603;49.432;11.418;2023-03-16T04:46:51;1.53;;;1.43;;
15012;SDS011;7603;49.432;11.418;2023-03-16T04:49:16;1.77;;;1.67;;
15012;SDS011;7603;49.432;11.418;2023-03-16T04:51:42;1.00;;;1.00;;
15012;SDS011;7603;49.432;11.418;2023-03-16T04:54:08;1.13;;;1.13;;
15012;SDS011;7603;49.432;11.418;2023-03-16T04:56:33;2.60;;;1.50;;
15012;SDS011;7603;49.432;11.418;2023-03-16T04:58:59;1.07;;;1.07;;
15012;SDS011;7603;49.432;11.418;2023-03-16T05:01:25;1.00;;;1.00;;
15012;SDS011;7603;49.432;11.418;2023-03-16T05:03:52;1.80;;;1.70;;
15012;SDS011;7603;49.432;11.418;2023-03-16T05:06:17;1.87;;;1.87;;
15012;SDS011;7603;49.432;11.418;2023-03-16T05:08:43;3.50;;;2.60;;
15012;SDS011;7603;49.432;11.418;2023-03-16T05:11:08;2.10;;;1.60;;
15012;SDS011;7603;49.432;11.418;2023-03-16T05:13:34;1.30;;;1.30;;
15012;SDS011;7603;49.432;11.418;2023-03-16T05:16:00;1.37;;;1.37;;
15012;SDS011;7603;49.432;11.418;2023-03-16T05:18:25;1.13;;;1.13;;
15012;SDS011;7603;49.432;11.418;2023-03-16T05:20:51;1.47;;;1.37;;
15012;SDS011;7603;49.432;11.418;2023-03-16T05:23:18;1.87;;;1.20;;
15012;SDS011;7603;49.432;11.418;2023-03-16T05:25:45;2.80;;;1.30;;
15012;SDS011;7603;49.432;11.418;2023-03-16T05:28:12;4.35;;;2.30;;
15012;SDS011;7603;49.432;11.418;2023-03-16T05:30:37;1.70;;;1.63;;
15012;SDS011;7603;49.432;11.418;2023-03-16T05:33:03;1.23;;;1.23;;
15012;SDS011;7603;49.432;11.418;2023-03-16T05:35:29;1.50;;;1.50;;
15012;SDS011;7603;49.432;11.418;2023-03-16T05:37:55;2.13;;;1.50;;
15012;SDS011;7603;49.432;11.418;2023-03-16T05:40:20;1.10;;;1.10;;
15012;SDS011;7603;49.432;11.418;2023-03-16T05:42:48;1.67;;;1.57;;
15012;SDS011;7603;49.432;11.418;2023-03-16T05:45:18;2.77;;;1.33;;
15012;SDS011;7603;49.432;11.418;2023-03-16T05:47:44;0.93;;;0.93;;
15012;SDS011;7603;49.432;11.418;2023-03-16T05:50:11;1.27;;;1.27;;
15012;SDS011;7603;49.432;11.418;2023-03-16T05:52:37;2.33;;;2.23;;
15012;SDS011;7603;49.432;11.418;2023-03-16T05:55:04;1.53;;;1.30;;
15012;SDS011;7603;49.432;11.418;2023-03-16T05:57:31;1.00;;;1.00;;
15012;SDS011;7603;49.432;11.418;2023-03-16T05:59:58;1.20;;;1.20;;
15012;SDS011;7603;49.432;11.418;2023-03-16T06:02:24;1.20;;;1.20;;
15012;SDS011;7603;49.432;11.418;2023-03-16T06:04:49;1.43;;;1.43;;
15012;SDS011;7603;49.432;11.418;2023-03-16T06:07:15;1.30;;;1.30;;
15012;SDS011;7603;49.432;11.418;2023-03-16T06:09:41;1.30;;;1.20;;
15012;SDS011;7603;49.432;11.418;2023-03-16T06:12:06;1.40;;;1.40;;
15012;SDS011;7603;49.432;11.418;2023-03-16T06:14:33;2.50;;;2.40;;
15012;SDS011;7603;49.432;11.418;2023-03-16T06:16:59;7.47;;;2.03;;
15012;SDS011;7603;49.432;11.418;2023-03-16T06:19:25;1.63;;;1.57;;
15012;SDS011;7603;49.432;11.418;2023-03-16T06:21:50;11.70;;;2.60;;
15012;SDS011;7603;49.432;11.418;2023-03-16T06:24:16;3.00;;;1.37;;
15012;SDS011;7603;49.432;11.418;2023-03-16T06:26:41;1.58;;;1.48;;
15012;SDS011;7603;49.432;11.418;2023-03-16T06:29:07;1.37;;;1.33;;
15012;SDS011;7603;49.432;11.418;2023-03-16T06:31:33;1.60;;;1.50;;
15012;SDS011;7603;49.432;11.418;2023-03-16T06:33:58;2.10;;;1.40;;
15012;SDS011;7603;49.432;11.418;2023-03-16T06:36:25;1.47;;;1.37;;
15012;SDS011;7603;49.432;11.418;2023-03-16T06:38:50;1.60;;;1.50;;
15012;SDS011;7603;49.432;11.418;2023-03-16T06:41:16;1.60;;;1.50;;
15012;SDS011;7603;49.432;11.418;2023-03-16T06:43:41;1.57;;;1.47;;
15012;SDS011;7603;49.432;11.418;2023-03-16T06:46:07;6.10;;;1.33;;
15012;SDS011;7603;49.432;11.418;2023-03-16T06:48:33;2.27;;;1.40;;
15012;SDS011;7603;49.432;11.418;2023-03-16T06:50:59;1.10;;;1.10;;
15012;SDS011;7603;49.432;11.418;2023-03-16T06:53:25;1.50;;;1.50;;
15012;SDS011;7603;49.432;11.418;2023-03-16T06:55:51;1.40;;;1.40;;
15012;SDS011;7603;49.432;11.418;2023-03-16T06:58:16;2.03;;;1.93;;
15012;SDS011;7603;49.432;11.418;2023-03-16T07:00:42;2.10;;;1.60;;
15012;SDS011;7603;49.432;11.418;2023-03-16T07:03:08;1.40;;;1.30;;
15012;SDS011;7603;49.432;11.418;2023-03-16T07:05:33;1.70;;;1.60;;
15012;SDS011;7603;49.432;11.418;2023-03-16T07:07:59;1.77;;;1.67;;
15012;SDS011;7603;49.432;11.418;2023-03-16T07:10:25;1.50;;;1.40;;
15012;SDS011;7603;49.432;11.418;2023-03-16T07:12:51;5.00;;;2.80;;
15012;SDS011;7603;49.432;11.418;2023-03-16T07:15:16;2.07;;;1.97;;
15012;SDS011;7603;49.432;11.418;2023-03-16T07:17:43;2.07;;;1.47;;
15012;SDS011;7603;49.432;11.418;2023-03-16T07:20:09;1.30;;;1.30;;
15012;SDS011;7603;49.432;11.418;2023-03-16T07:22:36;1.63;;;1.53;;
15012;SDS011;7603;49.432;11.418;2023-03-16T07:25:03;2.47;;;1.60;;
15012;SDS011;7603;49.432;11.418;2023-03-16T07:27:30;1.83;;;1.73;;
15012;SDS011;7603;49.432;11.418;2023-03-16T07:29:57;2.53;;;2.40;;
15012;SDS011;7603;49.432;11.418;2023-03-16T07:32:24;3.13;;;2.87;;
15012;SDS011;7603;49.432;11.418;2023-03-16T07:34:50;5.93;;;5.33;;
15012;SDS011;7603;49.432;11.418;2023-03-16T07:37:16;5.20;;;4.10;;
15012;SDS011;7603;49.432;11.418;2023-03-16T07:39:41;9.97;;;5.80;;
15012;SDS011;7603;49.432;11.418;2023-03-16T07:42:08;4.43;;;2.00;;
15012;SDS011;7603;49.432;11.418;2023-03-16T07:44:33;5.05;;;3.55;;
15012;SDS011;7603;49.432;11.418;2023-03-16T07:46:59;2.80;;;2.60;;
15012;SDS011;7603;49.432;11.418;2023-03-16T07:49:25;2.10;;;1.63;;
15012;SDS011;7603;49.432;11.418;2023-03-16T07:51:51;2.07;;;1.97;;
15012;SDS011;7603;49.432;11.418;2023-03-16T07:54:17;2.73;;;2.20;;
15012;SDS011;7603;49.432;11.418;2023-03-16T07:56:43;1.77;;;1.50;;
15012;SDS011;7603;49.432;11.418;2023-03-16T07:59:09;2.43;;;2.30;;
15012;SDS011;7603;49.432;11.418;2023-03-16T08:01:34;2.80;;;2.33;;
15012;SDS011;7603;49.432;11.418;2023-03-16T08:04:00;6.80;;;2.77;;
15012;SDS011;7603;49.432;11.418;2023-03-16T08:06:26;2.77;;;2.33;;
15012;SDS011;7603;49.432;11.418;2023-03-16T08:08:52;5.97;;;2.63;;
15012;SDS011;7603;49.432;11.418;2023-03-16T08:11:18;3.00;;;2.63;;
15012;SDS011;7603;49.432;11.418;2023-03-16T08:13:50;3.07;;;2.70;;
15012;SDS011;7603;49.432;11.418;2023-03-16T08:16:21;3.43;;;3.13;;
15012;SDS011;7603;49.432;11.418;2023-03-16T08:18:50;2.57;;;2.37;;
15012;SDS011;7603;49.432;11.418;2023-03-16T08:21:17;1.87;;;1.77;;
15012;SDS011;7603;49.432;11.418;2023-03-16T08:23:43;2.93;;;2.63;;
15012;SDS011;7603;49.432;11.418;2023-03-16T08:26:13;2.87;;;2.63;;
15012;SDS011;7603;49.432;11.418;2023-03-16T08:28:43;3.67;;;3.37;;
15012;SDS011;7603;49.432;11.418;2023-03-16T08:31:10;4.60;;;3.67;;
15012;SDS011;7603;49.432;11.418;2023-03-16T08:33:36;2.73;;;2.57;;
15012;SDS011;7603;49.432;11.418;2023-03-16T08:36:04;3.73;;;3.10;;
15012;SDS011;7603;49.432;11.418;2023-03-16T08:38:30;5.70;;;3.10;;
15012;SDS011;7603;49.432;11.418;2023-03-16T08:40:57;3.28;;;2.97;;
15012;SDS011;7603;49.432;11.418;2023-03-16T08:43:24;3.35;;;2.45;;
15012;SDS011;7603;49.432;11.418;2023-03-16T08:45:51;2.92;;;2.17;;
15012;SDS011;7603;49.432;11.418;2023-03-16T08:48:17;3.75;;;2.70;;
15012;SDS011;7603;49.432;11.418;2023-03-16T08:50:44;1.83;;;1.73;;
15012;SDS011;7603;49.432;11.418;2023-03-16T08:53:11;1.42;;;1.33;;
15012;SDS011;7603;49.432;11.418;2023-03-16T08:55:38;2.78;;;2.45;;
15012;SDS011;7603;49.432;11.418;2023-03-16T08:58:05;1.90;;;1.80;;
15012;SDS011;7603;49.432;11.418;2023-03-16T09:00:32;3.05;;;2.10;;
15012;SDS011;7603;49.432;11.418;2023-03-16T09:02:59;3.45;;;2.40;;
15012;SDS011;7603;49.432;11.418;2023-03-16T09:05:26;2.17;;;1.95;;
15012;SDS011;7603;49.432;11.418;2023-03-16T09:07:52;2.28;;;2.08;;
15012;SDS011;7603;49.432;11.418;2023-03-16T09:10:18;2.00;;;1.80;;
15012;SDS011;7603;49.432;11.418;2023-03-16T09:12:47;2.10;;;1.90;;
15012;SDS011;7603;49.432;11.418;2023-03-16T09:15:17;2.60;;;1.90;;
15012;SDS011;7603;49.432;11.418;2023-03-16T09:17:44;2.08;;;1.83;;
15012;SDS011;7603;49.432;11.418;2023-03-16T09:20:11;2.72;;;2.53;;
15012;SDS011;7603;49.432;11.418;2023-03-16T09:22:39;2.00;;;1.70;;
15012;SDS011;7603;49.432;11.418;2023-03-16T09:25:05;2.17;;;1.98;;
15012;SDS011;7603;49.432;11.418;2023-03-16T09:27:31;1.90;;;1.70;;
15012;SDS011;7603;49.432;11.418;2023-03-16T09:29:58;3.42;;;2.40;;
15012;SDS011;7603;49.432;11.418;2023-03-16T09:32:25;2.10;;;1.90;;
15012;SDS011;7603;49.432;11.418;2023-03-16T09:34:52;2.15;;;1.95;;
15012;SDS011;7603;49.432;11.418;2023-03-16T09:37:18;1.77;;;1.63;;
15012;SDS011;7603;49.432;11.418;2023-03-16T09:39:45;1.95;;;1.85;;
15012;SDS011;7603;49.432;11.418;2023-03-16T09:45:08;5.03;;;3.25;;
15012;SDS011;7603;49.432;11.418;2023-03-16T09:47:56;3.45;;;2.50;;
15012;SDS011;7603;49.432;11.418;2023-03-16T09:50:28;2.42;;;2.22;;
15012;SDS011;7603;49.432;11.418;2023-03-16T09:55:44;1.80;;;1.70;;
15012;SDS011;7603;49.432;11.418;2023-03-16T09:58:21;1.70;;;1.60;;
15012;SDS011;7603;49.432;11.418;2023-03-16T10:00:54;1.33;;;1.23;;
15012;SDS011;7603;49.432;11.418;2023-03-16T10:06:24;1.50;;;1.40;;
15012;SDS011;7603;49.432;11.418;2023-03-16T10:08:53;1.40;;;1.30;;
15012;SDS011;7603;49.432;11.418;2023-03-16T10:16:55;1.63;;;1.52;;
15012;SDS011;7603;49.432;11.418;2023-03-16T10:22:41;1.30;;;1.20;;
15012;SDS011;7603;49.432;11.418;2023-03-16T10:27:45;1.30;;;1.20;;
15012;SDS011;7603;49.432;11.418;2023-03-16T10:30:28;1.60;;;1.50;;
15012;SDS011;7603;49.432;11.418;2023-03-16T10:33:00;1.38;;;1.30;;
15012;SDS011;7603;49.432;11.418;2023-03-16T10:38:02;1.42;;;1.33;;
15012;SDS011;7603;49.432;11.418;2023-03-16T10:40:31;1.30;;;1.20;;
15012;SDS011;7603;49.432;11.418;2023-03-16T10:43:06;1.33;;;1.25;;
15012;SDS011;7603;49.432;11.418;2023-03-16T10:45:36;2.60;;;2.03;;
15012;SDS011;7603;49.432;11.418;2023-03-16T10:48:20;1.60;;;1.50;;
15012;SDS011;7603;49.432;11.418;2023-03-16T10:50:53;1.77;;;1.48;;
15012;SDS011;7603;49.432;11.418;2023-03-16T10:53:28;1.88;;;1.70;;
15012;SDS011;7603;49.432;11.418;2023-03-16T10:55:57;1.63;;;1.40;;
15012;SDS011;7603;49.432;11.418;2023-03-16T10:58:25;1.70;;;1.60;;
15012;SDS011;7603;49.432;11.418;2023-03-16T11:00:53;1.00;;;1.00;;
15012;SDS011;7603;49.432;11.418;2023-03-16T11:03:21;1.88;;;1.77;;
15012;SDS011;7603;49.432;11.418;2023-03-16T11:05:59;1.08;;;0.98;;
15012;SDS011;7603;49.432;11.418;2023-03-16T11:08:27;1.30;;;1.20;;
15012;SDS011;7603;49.432;11.418;2023-03-16T11:10:57;6.55;;;2.88;;
15012;SDS011;7603;49.432;11.418;2023-03-16T11:13:36;3.95;;;2.47;;
15012;SDS011;7603;49.432;11.418;2023-03-16T11:16:24;1.67;;;1.52;;
15012;SDS011;7603;49.432;11.418;2023-03-16T11:19:12;1.40;;;1.30;;
15012;SDS011;7603;49.432;11.418;2023-03-16T11:21:57;2.95;;;1.65;;
15012;SDS011;7603;49.432;11.418;2023-03-16T11:30:13;1.20;;;1.20;;
15012;SDS011;7603;49.432;11.418;2023-03-16T11:32:46;1.17;;;1.17;;
15012;SDS011;7603;49.432;11.418;2023-03-16T11:35:16;1.10;;;1.10;;
15012;SDS011;7603;49.432;11.418;2023-03-16T11:49:25;1.20;;;1.10;;
15012;SDS011;7603;49.432;11.418;2023-03-16T12:03:26;0.93;;;0.93;;
15012;SDS011;7603;49.432;11.418;2023-03-16T12:12:02;0.98;;;0.98;;
15012;SDS011;7603;49.432;11.418;2023-03-16T12:15:03;0.80;;;0.80;;
15012;SDS011;7603;49.432;11.418;2023-03-16T12:17:49;1.35;;;1.27;;
15012;SDS011;7603;49.432;11.418;2023-03-16T12:20:26;0.88;;;0.88;;
15012;SDS011;7603;49.432;11.418;2023-03-16T12:23:47;1.05;;;0.95;;
15012;SDS011;7603;49.432;11.418;2023-03-16T12:25:47;1.33;;;1.23;;
15012;SDS011;7603;49.432;11.418;2023-03-16T12:28:22;3.15;;;1.65;;
15012;SDS011;7603;49.432;11.418;2023-03-16T12:30:55;1.80;;;1.42;;
15012;SDS011;7603;49.432;11.418;2023-03-16T12:33:34;2.45;;;1.40;;
15012;SDS011;7603;49.432;11.418;2023-03-16T12:36:30;1.23;;;1.15;;
15012;SDS011;7603;49.432;11.418;2023-03-16T12:44:51;0.80;;;0.80;;
15012;SDS011;7603;49.432;11.418;2023-03-16T12:50:03;1.10;;;1.10;;
15012;SDS011;7603;49.432;11.418;2023-03-16T12:52:37;1.05;;;1.05;;
15012;SDS011;7603;49.432;11.418;2023-03-16T12:55:11;0.90;;;0.90;;
15012;SDS011;7603;49.432;11.418;2023-03-16T12:57:39;0.80;;;0.80;;
15012;SDS011;7603;49.432;11.418;2023-03-16T13:00:07;0.80;;;0.80;;
15012;SDS011;7603;49.432;11.418;2023-03-16T13:02:35;0.90;;;0.90;;
15012;SDS011;7603;49.432;11.418;2023-03-16T13:05:35;0.80;;;0.80;;
15012;SDS011;7603;49.432;11.418;2023-03-16T13:08:07;0.80;;;0.80;;
15012;SDS011;7603;49.432;11.418;2023-03-16T13:10:35;1.00;;;1.00;;
15012;SDS011;7603;49.432;11.418;2023-03-16T13:13:10;0.90;;;0.90;;
15012;SDS011;7603;49.432;11.418;2023-03-16T13:15:40;1.05;;;1.05;;
15012;SDS011;7603;49.432;11.418;2023-03-16T13:20:52;0.55;;;0.55;;
15012;SDS011;7603;49.432;11.418;2023-03-16T13:28:54;0.73;;;0.73;;
15012;SDS011;7603;49.432;11.418;2023-03-16T13:31:24;1.10;;;1.10;;
15012;SDS011;7603;49.432;11.418;2023-03-16T13:34:04;0.70;;;0.70;;
15012;SDS011;7603;49.432;11.418;2023-03-16T13:36:35;0.75;;;0.75;;
15012;SDS011;7603;49.432;11.418;2023-03-16T13:44:29;0.98;;;0.98;;
15012;SDS011;7603;49.432;11.418;2023-03-16T13:47:01;1.52;;;1.42;;
15012;SDS011;7603;49.432;11.418;2023-03-16T13:49:28;2.72;;;2.58;;
15012;SDS011;7603;49.432;11.418;2023-03-16T13:51:55;0.73;;;0.73;;
15012;SDS011;7603;49.432;11.418;2023-03-16T13:54:22;2.28;;;2.17;;
15012;SDS011;7603;49.432;11.418;2023-03-16T13:56:48;1.02;;;1.02;;
15012;SDS011;7603;49.432;11.418;2023-03-16T13:59:16;1.23;;;1.13;;
15012;SDS011;7603;49.432;11.418;2023-03-16T14:01:43;0.73;;;0.73;;
15012;SDS011;7603;49.432;11.418;2023-03-16T14:04:10;4.68;;;4.28;;
15012;SDS011;7603;49.432;11.418;2023-03-16T14:06:50;2.65;;;2.45;;
15012;SDS011;7603;49.432;11.418;2023-03-16T14:09:21;2.65;;;2.45;;
15012;SDS011;7603;49.432;11.418;2023-03-16T14:11:50;3.22;;;2.30;;
15012;SDS011;7603;49.432;11.418;2023-03-16T14:14:18;1.50;;;1.40;;
15012;SDS011;7603;49.432;11.418;2023-03-16T14:16:58;3.03;;;2.13;;
15012;SDS011;7603;49.432;11.418;2023-03-16T14:19:44;1.77;;;1.67;;
15012;SDS011;7603;49.432;11.418;2023-03-16T14:22:12;1.70;;;1.60;;
15012;SDS011;7603;49.432;11.418;2023-03-16T14:24:40;1.35;;;1.25;;
15012;SDS011;7603;49.432;11.418;2023-03-16T14:29:43;1.40;;;1.30;;
15012;SDS011;7603;49.432;11.418;2023-03-16T14:32:20;1.50;;;1.40;;
15012;SDS011;7603;49.432;11.418;2023-03-16T14:34:58;1.88;;;1.77;;
15012;SDS011;7603;49.432;11.418;2023-03-16T14:37:39;28.75;;;20.35;;
15012;SDS011;7603;49.432;11.418;2023-03-16T14:40:26;4.70;;;2.90;;
15012;SDS011;7603;49.432;11.418;2023-03-16T14:42:55;1.75;;;1.65;;
15012;SDS011;7603;49.432;11.418;2023-03-16T14:45:23;2.78;;;2.67;;
15012;SDS011;7603;49.432;11.418;2023-03-16T14:47:54;3.22;;;3.03;;
15012;SDS011;7603;49.432;11.418;2023-03-16T14:50:42;1.80;;;1.70;;
15012;SDS011;7603;49.432;11.418;2023-03-16T14:53:09;1.77;;;1.67;;
15012;SDS011;7603;49.432;11.418;2023-03-16T14:55:35;1.88;;;1.77;;
15012;SDS011;7603;49.432;11.418;2023-03-16T14:58:01;2.30;;;2.20;;
15012;SDS011;7603;49.432;11.418;2023-03-16T15:00:27;7.15;;;6.65;;
15012;SDS011;7603;49.432;11.418;2023-03-16T15:03:02;1.83;;;1.73;;
15012;SDS011;7603;49.432;11.418;2023-03-16T15:05:36;2.25;;;2.15;;
15012;SDS011;7603;49.432;11.418;2023-03-16T15:08:03;1.88;;;1.77;;
15012;SDS011;7603;49.432;11.418;2023-03-16T15:10:31;1.95;;;1.85;;
15012;SDS011;7603;49.432;11.418;2023-03-16T15:12:59;2.63;;;2.42;;
15012;SDS011;7603;49.432;11.418;2023-03-16T15:15:38;3.03;;;2.83;;
15012;SDS011;7603;49.432;11.418;2023-03-16T15:18:06;2.42;;;2.22;;
15012;SDS011;7603;49.432;11.418;2023-03-16T15:20:33;4.45;;;2.78;;
15012;SDS011;7603;49.432;11.418;2023-03-16T15:23:03;1.80;;;1.70;;
15012;SDS011;7603;49.432;11.418;2023-03-16T15:28:23;2.38;;;2.22;;
15012;SDS011;7603;49.432;11.418;2023-03-16T15:30:56;3.13;;;2.92;;
15012;SDS011;7603;49.432;11.418;2023-03-16T15:33:24;6.43;;;5.15;;
15012;SDS011;7603;49.432;11.418;2023-03-16T15:35:51;3.90;;;3.60;;
15012;SDS011;7603;49.432;11.418;2023-03-16T15:40:47;3.42;;;2.90;;
15012;SDS011;7603;49.432;11.418;2023-03-16T15:43:15;2.05;;;1.95;;
15012;SDS011;7603;49.432;11.418;2023-03-16T15:45:43;8.73;;;5.88;;
15012;SDS011;7603;49.432;11.418;2023-03-16T15:48:10;5.28;;;3.17;;
15012;SDS011;7603;49.432;11.418;2023-03-16T15:50:36;13.38;;;9.00;;
15012;SDS011;7603;49.432;11.418;2023-03-16T15:53:06;11.65;;;6.38;;
15012;SDS011;7603;49.432;11.418;2023-03-16T15:55:40;5.07;;;3.63;;
15012;SDS011;7603;49.432;11.418;2023-03-16T15:58:15;12.93;;;6.68;;
15012;SDS011;7603;49.432;11.418;2023-03-16T16:00:44;5.93;;;4.90;;
15012;SDS011;7603;49.432;11.418;2023-03-16T16:03:12;3.20;;;2.90;;
15012;SDS011;7603;49.432;11.418;2023-03-16T16:05:38;3.47;;;2.30;;
15012;SDS011;7603;49.432;11.418;2023-03-16T16:08:03;1.60;;;1.50;;
15012;SDS011;7603;49.432;11.418;2023-03-16T16:10:29;2.00;;;1.90;;
15012;SDS011;7603;49.432;11.418;2023-03-16T16:12:56;45.10;;;22.13;;
15012;SDS011;7603;49.432;11.418;2023-03-16T16:15:25;11.10;;;7.43;;
15012;SDS011;7603;49.432;11.418;2023-03-16T16:18:00;32.00;;;16.25;;
15012;SDS011;7603;49.432;11.418;2023-03-16T16:20:28;7.93;;;7.07;;
15012;SDS011;7603;49.432;11.418;2023-03-16T16:22:56;3.58;;;3.28;;
15012;SDS011;7603;49.432;11.418;2023-03-16T16:25:24;11.40;;;7.55;;
15012;SDS011;7603;49.432;11.418;2023-03-16T16:27:52;29.02;;;15.07;;
15012;SDS011;7603;49.432;11.418;2023-03-16T16:30:26;79.82;;;38.35;;
15012;SDS011;7603;49.432;11.418;2023-03-16T16:32:53;41.72;;;22.85;;
15012;SDS011;7603;49.432;11.418;2023-03-16T16:35:21;36.30;;;17.20;;